Terminal Aerodrome Forecast
Issued by NWS Grand Forks, ND

Home | Current Version | Previous Version | Graphics & Text | Print | Product List | Glossary On
Versions: 1 2 3 4 5 6 7 8 9 10 11 12 13 14 15 16 17 18
209
FTUS43 KFGF 041021 AAB
TAFFAR
TAF AMD
KFAR 041021Z 0410/0506 33010KT P6SM OVC021
     FM041800 32007KT P6SM BKN040
     FM050200 26005KT P6SM BKN150
     FM050500 18005KT P6SM BKN150=

USA.gov is the U.S. government's official web portal to all federal, state and local government web resources and services.